createdAt,value
2019-05-07T00:03:42.123Z,99.90
2019-05-07T00:08:45.923Z,99.90
2019-05-07T00:13:49.545Z,99.90
2019-05-07T00:18:53.135Z,99.90
2019-05-07T00:23:56.857Z,99.90
2019-05-07T00:29:02.246Z,99.90
2019-05-07T00:34:07.175Z,99.90
2019-05-07T00:39:15.060Z,99.90
2019-05-07T00:44:19.336Z,99.90
2019-05-07T00:49:24.520Z,99.90
2019-05-07T00:54:28.229Z,99.90
2019-05-07T00:59:32.306Z,99.90
2019-05-07T01:04:36.066Z,99.90
2019-05-07T01:09:39.656Z,99.90
2019-05-07T01:14:43.231Z,99.90
2019-05-07T01:19:47.003Z,99.90
2019-05-07T01:24:52.457Z,99.90
2019-05-07T01:29:56.191Z,99.90
2019-05-07T01:35:07.408Z,99.90
2019-05-07T01:40:12.213Z,99.90
2019-05-07T01:45:16.455Z,99.90
2019-05-07T01:50:22.189Z,99.90
2019-05-07T01:55:25.458Z,99.90
2019-05-07T02:00:29.092Z,99.90
2019-05-07T02:05:42.287Z,99.90
2019-05-07T02:10:47.214Z,99.90
2019-05-07T02:16:00.278Z,99.90
2019-05-07T02:20:56.310Z,99.90
2019-05-07T02:26:01.950Z,99.90
2019-05-07T02:31:05.335Z,99.90
2019-05-07T02:36:09.040Z,99.90
2019-05-07T02:41:17.314Z,99.90
2019-05-07T02:46:30.973Z,99.90
2019-05-07T02:51:33.413Z,99.90
2019-05-07T02:56:36.899Z,99.90
2019-05-07T03:01:43.241Z,99.90
2019-05-07T03:06:45.941Z,99.90
2019-05-07T03:11:52.736Z,99.90
2019-05-07T03:16:55.152Z,99.90
2019-05-07T03:21:58.806Z,99.90
2019-05-07T03:27:03.383Z,99.90
2019-05-07T03:32:27.314Z,99.90
2019-05-07T03:37:36.141Z,99.90
2019-05-07T03:42:37.918Z,99.90
2019-05-07T03:47:46.249Z,99.90
2019-05-07T03:52:49.844Z,99.90
2019-05-07T03:57:53.480Z,99.90
2019-05-07T04:02:57.151Z,99.90
2019-05-07T04:08:03.299Z,99.90
2019-05-07T04:13:06.212Z,99.90
2019-05-07T04:18:12.859Z,99.90
2019-05-07T04:23:15.208Z,99.90
2019-05-07T04:28:23.711Z,99.90
2019-05-07T04:33:29.116Z,99.90
2019-05-07T04:38:33.372Z,99.90
2019-05-07T04:43:37.132Z,99.90
2019-05-07T04:48:43.702Z,99.90
2019-05-07T04:53:46.085Z,99.90
2019-05-07T04:58:52.823Z,99.90
2019-05-07T05:03:54.881Z,99.90
2019-05-07T05:08:58.555Z,99.90
2019-05-07T05:14:02.930Z,99.90
2019-05-07T05:19:07.404Z,99.90
2019-05-07T05:24:12.781Z,99.90
2019-05-07T05:29:16.640Z,99.90
2019-05-07T05:34:22.192Z,99.90
2019-05-07T05:39:25.523Z,99.90
2019-05-07T05:44:33.556Z,99.90
2019-05-07T05:49:37.227Z,99.90
2019-05-07T05:54:45.543Z,99.90
2019-05-07T05:59:56.434Z,99.90
2019-05-07T06:05:04.768Z,99.60
2019-05-07T06:10:22.305Z,99.30
2019-05-07T06:15:29.679Z,99.90
2019-05-07T06:20:35.073Z,99.90
2019-05-07T06:25:39.346Z,99.90
2019-05-07T06:30:43.723Z,99.90
2019-05-07T06:35:47.562Z,99.90
2019-05-07T06:41:02.651Z,99.90
2019-05-07T06:46:07.127Z,99.90
2019-05-07T06:51:12.591Z,99.90
2019-05-07T06:56:16.135Z,99.90
2019-05-07T07:01:27.429Z,99.90
2019-05-07T07:06:33.071Z,99.90
2019-05-07T07:11:38.378Z,99.90
2019-05-07T07:16:42.403Z,99.90
2019-05-07T07:21:45.977Z,99.90
2019-05-07T07:26:49.656Z,99.90
2019-05-07T07:31:55.051Z,99.90
2019-05-07T07:37:06.099Z,99.90
2019-05-07T07:42:09.494Z,99.90
2019-05-07T07:47:13.252Z,99.90
2019-05-07T07:52:16.865Z,99.90
2019-05-07T07:57:37.440Z,99.90
2019-05-07T08:02:42.830Z,99.90
2019-05-07T08:07:46.948Z,99.90
2019-05-07T08:12:52.577Z,99.90
2019-05-07T08:17:56.151Z,99.90
2019-05-07T08:22:59.940Z,99.90
2019-05-07T08:28:03.581Z,99.90
2019-05-07T08:33:09.857Z,99.90
2019-05-07T08:38:13.687Z,99.90
2019-05-07T08:43:17.340Z,99.40
2019-05-07T08:48:28.523Z,99.60
2019-05-07T08:53:32.801Z,99.90
2019-05-07T08:58:36.889Z,99.90
2019-05-07T09:03:43.461Z,99.60
2019-05-07T09:08:47.126Z,99.90
2019-05-07T09:13:52.450Z,99.00
2019-05-07T09:18:56.265Z,98.10
2019-05-07T09:24:00.105Z,97.80
2019-05-07T09:29:14.632Z,98.70
2019-05-07T09:34:22.165Z,96.90
2019-05-07T09:39:24.735Z,98.30
2019-05-07T09:44:28.300Z,97.50
2019-05-07T09:49:32.717Z,97.90
2019-05-07T09:54:37.344Z,98.40
2019-05-07T09:59:42.610Z,99.90
2019-05-07T10:04:46.335Z,99.90
2019-05-07T10:09:52.066Z,99.40
2019-05-07T10:14:55.512Z,99.20
2019-05-07T10:19:59.502Z,99.80
2019-05-07T10:25:03.598Z,99.00
2019-05-07T10:30:08.529Z,99.30
2019-05-07T10:35:13.025Z,98.70
2019-05-07T10:40:17.911Z,98.80
2019-05-07T10:45:23.260Z,99.90
2019-05-07T10:50:38.794Z,99.90
2019-05-07T10:55:36.505Z,99.90
2019-05-07T11:00:42.102Z,99.90
2019-05-07T11:05:45.873Z,99.90
2019-05-07T11:10:52.067Z,99.90
2019-05-07T11:16:11.608Z,99.90
2019-05-07T11:21:14.813Z,99.90
2019-05-07T11:26:18.557Z,99.90
2019-05-07T11:31:22.400Z,99.90
2019-05-07T11:36:26.127Z,99.90
2019-05-07T11:41:37.375Z,99.90
2019-05-07T11:46:44.426Z,99.90
2019-05-07T11:51:58.616Z,99.90
2019-05-07T11:57:02.636Z,99.90
2019-05-07T12:02:06.738Z,99.90
2019-05-07T12:07:11.927Z,99.90
2019-05-07T12:12:15.862Z,99.90
2019-05-07T12:17:19.599Z,99.90
2019-05-07T12:22:30.876Z,99.90
2019-05-07T12:27:34.720Z,99.90
2019-05-07T12:32:56.355Z,99.90
2019-05-07T12:38:02.003Z,99.90
2019-05-07T12:43:05.593Z,99.90
2019-05-07T12:48:11.569Z,99.90
2019-05-07T12:53:32.461Z,99.90
2019-05-07T12:58:36.195Z,99.90
2019-05-07T13:03:42.778Z,99.90
2019-05-07T13:08:46.683Z,99.90
2019-05-07T13:13:50.360Z,99.90
2019-05-07T13:18:54.105Z,99.90
2019-05-07T13:23:57.795Z,99.90
2019-05-07T13:29:02.486Z,99.90
2019-05-07T13:34:08.157Z,99.90
2019-05-07T13:39:25.585Z,99.90
2019-05-07T13:44:31.935Z,99.90
2019-05-07T13:49:35.734Z,99.90
2019-05-07T13:54:41.811Z,99.90
2019-05-07T13:59:45.256Z,99.90
2019-05-07T14:04:49.065Z,99.90
2019-05-07T14:09:53.285Z,99.90
2019-05-07T14:14:56.946Z,99.90
2019-05-07T14:20:01.828Z,99.90
2019-05-07T14:25:07.167Z,99.90
2019-05-07T14:30:13.004Z,99.90
2019-05-07T14:35:18.541Z,99.90
2019-05-07T14:40:25.167Z,99.90
2019-05-07T14:45:28.456Z,99.90
2019-05-07T14:50:33.035Z,99.90
2019-05-07T14:55:36.918Z,99.90
2019-05-07T15:00:42.636Z,99.90
2019-05-07T15:05:46.722Z,99.90
2019-05-07T15:10:52.518Z,99.90
2019-05-07T15:15:56.463Z,99.90
2019-05-07T15:21:01.868Z,99.90
2019-05-07T15:26:06.195Z,99.90
2019-05-07T15:31:12.235Z,99.90
2019-05-07T15:36:16.133Z,99.90
2019-05-07T15:41:19.962Z,99.90
2019-05-07T15:46:23.737Z,99.90
2019-05-07T15:51:27.211Z,99.90
2019-05-07T15:56:32.377Z,99.90
2019-05-07T16:01:36.314Z,99.90
2019-05-07T16:06:42.272Z,99.90
2019-05-07T16:11:45.207Z,99.90
2019-05-07T16:16:48.794Z,99.90
2019-05-07T16:21:52.549Z,99.90
2019-05-07T16:26:56.612Z,99.90
2019-05-07T16:32:02.271Z,99.90
2019-05-07T16:37:07.613Z,99.90
2019-05-07T16:42:11.275Z,99.90
2019-05-07T16:47:14.884Z,99.90
2019-05-07T16:52:18.519Z,99.90
2019-05-07T16:57:39.179Z,99.90
2019-05-07T17:02:47.360Z,99.90
2019-05-07T17:08:02.422Z,99.90
2019-05-07T17:13:06.305Z,99.90
2019-05-07T17:18:11.755Z,99.90
2019-05-07T17:23:15.264Z,99.90
2019-05-07T17:28:18.942Z,99.90
2019-05-07T17:33:23.126Z,99.90
2019-05-07T17:38:26.971Z,99.90
2019-05-07T17:43:32.536Z,99.90
2019-05-07T17:48:35.976Z,99.90
2019-05-07T17:53:39.640Z,99.90
2019-05-07T17:58:43.546Z,99.90
2019-05-07T18:03:47.216Z,99.90
2019-05-07T18:08:52.015Z,99.90
2019-05-07T18:13:55.719Z,99.90
2019-05-07T18:18:59.476Z,99.90
2019-05-07T18:24:13.381Z,99.90
2019-05-07T18:29:11.941Z,99.90
2019-05-07T18:34:15.944Z,99.90
2019-05-07T18:39:20.432Z,99.90
2019-05-07T18:44:24.466Z,99.90
2019-05-07T18:49:28.130Z,99.90
2019-05-07T18:54:31.750Z,99.90
2019-05-07T18:59:36.869Z,99.90
2019-05-07T19:04:42.256Z,99.90
2019-05-07T19:09:47.825Z,99.90
2019-05-07T19:14:51.760Z,99.90
2019-05-07T19:19:55.431Z,99.90
2019-05-07T19:24:59.176Z,99.90
2019-05-07T19:30:03.211Z,99.90
2019-05-07T19:35:07.231Z,99.90
2019-05-07T19:40:12.563Z,99.90
2019-05-07T19:45:18.978Z,99.90
2019-05-07T19:50:23.357Z,99.90
2019-05-07T19:55:27.176Z,99.90
2019-05-07T20:00:32.741Z,99.90
2019-05-07T20:05:37.443Z,99.90
2019-05-07T20:10:45.687Z,99.90
2019-05-07T20:15:54.152Z,99.90
2019-05-07T20:20:58.512Z,99.90
2019-05-07T20:26:03.092Z,99.90
2019-05-07T20:31:06.795Z,99.90
2019-05-07T20:36:10.635Z,99.90
2019-05-07T20:41:16.586Z,99.90
2019-05-07T20:46:19.758Z,99.90
2019-05-07T20:51:23.431Z,99.90
2019-05-07T20:56:28.651Z,99.90
2019-05-07T21:01:32.915Z,99.90
2019-05-07T21:06:36.966Z,99.90
2019-05-07T21:11:42.865Z,99.90
2019-05-07T21:16:45.756Z,99.90
2019-05-07T21:21:49.576Z,99.90
2019-05-07T21:26:53.323Z,99.90
2019-05-07T21:31:56.922Z,99.90
2019-05-07T21:37:03.052Z,99.90
2019-05-07T21:42:06.012Z,99.90
2019-05-07T21:47:09.619Z,99.90
2019-05-07T21:52:13.222Z,99.90
2019-05-07T21:57:33.480Z,99.90
2019-05-07T22:02:37.252Z,99.90
2019-05-07T22:07:40.823Z,99.90
2019-05-07T22:12:44.563Z,99.90
2019-05-07T22:17:48.158Z,99.90
2019-05-07T22:22:52.183Z,99.90
2019-05-07T22:27:55.898Z,99.90
2019-05-07T22:33:02.448Z,99.90
2019-05-07T22:38:06.183Z,99.90
2019-05-07T22:43:09.840Z,99.90
2019-05-07T22:48:13.444Z,99.90
2019-05-07T22:53:16.996Z,99.90
2019-05-07T22:58:22.418Z,99.90
2019-05-07T23:03:26.051Z,99.90
2019-05-07T23:08:29.668Z,99.90
2019-05-07T23:13:33.232Z,99.90
2019-05-07T23:18:36.871Z,99.90
2019-05-07T23:23:42.222Z,99.90
2019-05-07T23:28:45.739Z,99.90
2019-05-07T23:33:49.690Z,99.90
2019-05-07T23:38:53.283Z,99.90
2019-05-07T23:44:13.961Z,99.90
2019-05-07T23:49:17.627Z,99.90
2019-05-07T23:54:22.927Z,99.90
2019-05-07T23:59:26.502Z,99.90
